This is the latest recevied weather packets stored in our database for station/object WC4PEM-6. If no packets are shown the sender has not sent any weather packets the latest 10 day(s).
| Time | Temp. | Humidity | Pressure | Rain* | Wind** | Luminosity | Snow |
|---|---|---|---|---|---|---|---|
| 1777900236 | 21.67° C | 70% | 1016.3 hPa | 0 mm | - | - | - |
| 1777900209 | 22.22° C | 69% | 1016.4 hPa | 0 mm | - | - | - |
| 1777899908 | 21.67° C | 70% | 1016.3 hPa | 0 mm | - | - | - |
| 1777899804 | 21.67° C | 72% | 1016.4 hPa | 0 mm | - | - | - |
| 1777899608 | 21.67° C | 72% | 1016.4 hPa | 0 mm | - | - | - |
| 1777899309 | 21.67° C | 71% | 1016.6 hPa | 0 mm | - | - | - |
| 1777899008 | 21.67° C | 71% | 1016.4 hPa | 0 mm | - | - | - |
| 1777898860 | 21.11° C | 72% | 1016.4 hPa | 0 mm | - | - | - |
| 1777898709 | 21.11° C | 72% | 1016.4 hPa | 0 mm | - | - | - |
| 1777898409 | 21.11° C | 72% | 1016.4 hPa | 0 mm | - | - | - |
| 1777898109 | 21.11° C | 72% | 1016.4 hPa | 0 mm | - | - | - |
| 1777897809 | 20.56° C | 73% | 1016.3 hPa | 0 mm | - | - | - |
| 1777897686 | 20.56° C | 74% | 1016.4 hPa | 0 mm | - | - | - |
| 1777897509 | 20.56° C | 74% | 1016.4 hPa | 0 mm | - | - | - |
| 1777897209 | 20.56° C | 74% | 1016.3 hPa | 0 mm | - | - | - |
| 1777896909 | 20° C | 75% | 1016.2 hPa | 0 mm | - | - | - |
| 1777896609 | 20° C | 76% | 1016.1 hPa | 0 mm | - | - | - |
| 1777896595 | 20° C | 77% | 1016.1 hPa | 0 mm | - | - | - |
| 1777896309 | 20° C | 77% | 1016.1 hPa | 0 mm | - | - | - |
| 1777896009 | 19.44° C | 78% | 1016.1 hPa | 0 mm | - | - | - |
| 1777895795 | 18.89° C | 80% | 1015.8 hPa | 0 mm | - | - | - |
| 1777895709 | 19.44° C | 79% | 1015.9 hPa | 0 mm | - | - | - |
| 1777895409 | 18.89° C | 80% | 1015.8 hPa | 0 mm | - | - | - |
| 1777895109 | 18.33° C | 81% | 1015.6 hPa | 0 mm | - | - | - |
| 1777894809 | 18.33° C | 82% | 1015.7 hPa | 0 mm | - | - | - |
* Rain latest hour (hover to see other rain measurements)
** Current wind speed in m/s (hover to see current wind gust speed)